Latest Flight | Flight Log | Data Trends | Login | Join FlightData.com!
Flight Info - N569DS (Diamond DA40 #40.648)
Date Origin Dest Depart Arrive Hobbs Flight Time Ground Time Flight Distance Taxi Distance Fuel Fuel/hr Fuel/nm Altitude Gnd Speed
Sat, Mar 27, 2021     11:18 11:18 0 hrs 0 hrs (0:00) 0 hrs (0:00) 0 nm 0 nm 0.02 gal 5.14 gal/hr 0 gal/nm 0 msl 0 kts
Graph | Increase Sample Rate (1 sec) |
Zoom In: Click and Drag to the right and down. Zoom Out: Click and Drag to the left.
Scroll Chart (while zoomed in): Hold right mouse-button.
Autopilot / NAV / COM
AP/FD: Mode: COMs: NAVs:
AP:
FD:
HSI Sel CRS Sel ActvWpt Dist
-NA-
More Flights - N569DS
Date Origin Dest Depart Arrive Hobbs Flight Time Flight Distance Fuel Fuel/hr Fuel/nm Altitude Gnd Speed
Sat, Mar 27, 2021     11:18 11:18 0 hrs 0 hrs 0.00 nm 0.02 gal 5.14 gal/hr 0.00 gal/nm 0 msl 0 kts
Sat, Mar 27, 2021     11:15 11:16 0.01 hrs 0 hrs 0.00 nm 0.02 gal 1.64 gal/hr 0.00 gal/nm 0 msl 0 kts
Fri, Mar 26, 2021 M25 KMSN 15:58 19:04 2.97 hrs 2.79 hrs 388.97 nm 32.00 gal 10.79 gal/hr 0.08 gal/nm 6534 msl 133 kts
Cruise 16:27:06 16:51:51   24m 45s 55.31 nm 4.13 gal 10 gal/h 0.07 gal/nm 6475 feet 132 kts    
Cruise 17:13:10 17:25:07   11m 57s 26.93 nm 2.19 gal 11 gal/h 0.08 gal/nm 2994 feet 137 kts    
Cruise 17:34:48 17:47:46   12m 58s 28.56 nm 2.16 gal 10 gal/h 0.08 gal/nm 2983 feet 137 kts    
Cruise 17:52:55 17:53:26   31s 1.21 nm 0.1 gal 11 gal/h 0.08 gal/nm 2976 feet 139 kts    
Cruise 18:02:37 18:14:12   11m 35s 26.49 nm 2.13 gal 11 gal/h 0.08 gal/nm 2298 feet 137 kts    
Cruise 18:34:40 18:43:59   9m 19s 21 nm 1.71 gal 11 gal/h 0.08 gal/nm 2024 feet 137 kts    
Cruise 18:49:10 18:53:40   4m 30s 10.39 nm 0.83 gal 11 gal/h 0.08 gal/nm 2499 feet 141 kts    
Fri, Mar 26, 2021 AL15 M25 12:14 16:38 3.25 hrs 2.92 hrs 397.19 nm 34.01 gal 10.46 gal/hr 0.09 gal/nm 6526 msl 130 kts
Cruise 13:31:23 13:44:45   13m 22s 30.11 nm 2.45 gal 11 gal/h 0.08 gal/nm 2876 feet 134 kts    
Cruise 14:07:13 14:10:46   3m 33s 7.61 nm 0.65 gal 11 gal/h 0.09 gal/nm 4631 feet 129 kts    
Cruise 14:22:58 15:20:29   57m 31s 127.53 nm 9.59 gal 10 gal/h 0.08 gal/nm 6494 feet 132 kts    
Fri, Mar 26, 2021     11:48 11:48 0.01 hrs 0 hrs 0.00 nm 0.02 gal 2.48 gal/hr 0.00 gal/nm 0 msl 0 kts
Sun, Mar 21, 2021 M25 AL15 12:50 16:30 3.51 hrs 3.3 hrs 409.91 nm 33.86 gal 9.66 gal/hr 0.08 gal/nm 7531 msl 118 kts
Cruise 13:21:17 13:25:02   3m 45s 8.48 nm 0.63 gal 10 gal/h 0.07 gal/nm 7503 feet 117 kts    
Cruise 13:45:01 13:54:06   9m 05s 20.32 nm 1.52 gal 10 gal/h 0.07 gal/nm 7497 feet 119 kts    
Cruise 14:04:41 14:18:40   13m 59s 31.73 nm 2.33 gal 10 gal/h 0.07 gal/nm 7498 feet 120 kts    
Cruise 14:39:01 16:01:47   1h 22m 187.64 nm 13.8 gal 10 gal/h 0.07 gal/nm 7502 feet 130 kts    
Sun, Mar 21, 2021 KMSN M25 08:33 12:23 3.63 hrs 3.33 hrs 391.09 nm 35.19 gal 9.69 gal/hr 0.09 gal/nm 7523 msl 111 kts
Cruise 09:10:22 11:25:04   2h 14m 305.36 nm 22.45 gal 10 gal/h 0.07 gal/nm 7502 feet 113 kts    
Cruise 11:31:19 11:37:32   6m 13s 13.82 nm 1.04 gal 10 gal/h 0.08 gal/nm 6554 feet 112 kts    
Cruise 11:44:05 11:47:27   3m 22s 7.61 nm 0.56 gal 10 gal/h 0.07 gal/nm 7507 feet 114 kts    
Cruise 11:52:33 12:04:57   12m 24s 28.77 nm 2.07 gal 10 gal/h 0.07 gal/nm 7477 feet 120 kts    
Complete Flight Log (1931)
FlightData.com is operated by AEROCOR